Time;durP1;ratioP1;P1;durP2;ratioP2;P2;SDS_P1;SDS_P2;PMS_P1;PMS_P2;Temp;Humidity;BMP_temperature;BMP_pressure;BME280_temperature;BME280_humidity;BME280_pressure;Samples;Min_cycle;Max_cycle;Signal;HPM_P1;HPM_P2
2021/05/05 00:02:16;;;;;;;6.50;3.08;;;9.30;96.50;;;;;;5039623;28;20069;-71
2021/05/05 00:04:42;;;;;;;7.45;2.88;;;9.20;96.60;;;;;;5039411;28;20025;-71
2021/05/05 00:07:07;;;;;;;5.88;3.60;;;9.20;95.40;;;;;;5039224;28;20083;-71
2021/05/05 00:09:33;;;;;;;11.98;4.00;;;9.20;95.30;;;;;;5039479;28;20022;-71
2021/05/05 00:11:59;;;;;;;11.32;4.75;;;9.20;95.30;;;;;;5039182;28;20362;-71
2021/05/05 00:14:25;;;;;;;9.65;4.25;;;9.20;96.00;;;;;;5039318;28;20032;-71
2021/05/05 00:16:51;;;;;;;11.77;4.65;;;9.20;96.10;;;;;;5038822;28;20073;-71
2021/05/05 00:19:17;;;;;;;9.90;4.20;;;9.10;95.90;;;;;;5039288;28;20053;-71
2021/05/05 00:21:43;;;;;;;7.35;4.55;;;9.20;96.80;;;;;;5038968;28;20030;-71
2021/05/05 00:24:10;;;;;;;7.13;4.22;;;9.20;97.50;;;;;;5039268;28;20319;-72
2021/05/05 00:26:36;;;;;;;8.13;4.05;;;9.20;97.30;;;;;;5038790;28;20036;-71
2021/05/05 00:29:02;;;;;;;8.27;4.03;;;9.20;96.50;;;;;;5039090;28;20030;-71
2021/05/05 00:31:27;;;;;;;8.95;4.38;;;9.20;96.00;;;;;;5038741;28;20025;-71
2021/05/05 00:33:54;;;;;;;12.52;4.25;;;9.20;95.90;;;;;;5038966;28;20032;-71
2021/05/05 00:36:19;;;;;;;9.60;4.53;;;9.20;95.40;;;;;;5038670;28;20125;-71
2021/05/05 00:38:46;;;;;;;5.03;3.70;;;9.10;96.20;;;;;;5038970;28;20053;-71
2021/05/05 00:41:12;;;;;;;8.68;3.88;;;9.10;95.60;;;;;;5038591;28;20410;-72
2021/05/05 00:43:39;;;;;;;8.23;3.92;;;9.20;95.20;;;;;;5038453;28;20029;-71
2021/05/05 00:46:05;;;;;;;6.50;4.63;;;9.20;94.90;;;;;;5038675;28;20329;-71
2021/05/05 00:48:31;;;;;;;12.10;5.00;;;9.20;95.90;;;;;;5038743;28;20359;-71
2021/05/05 00:50:58;;;;;;;7.60;4.25;;;9.20;96.60;;;;;;5038731;28;20040;-71
2021/05/05 00:53:24;;;;;;;5.45;3.33;;;9.20;96.80;;;;;;5038372;28;20382;-71
2021/05/05 00:55:50;;;;;;;5.78;3.67;;;9.10;95.90;;;;;;5038606;28;20021;-71
2021/05/05 00:58:17;;;;;;;6.82;4.40;;;9.10;95.90;;;;;;5038573;28;20472;-71
2021/05/05 01:00:45;;;;;;;6.95;4.32;;;9.10;95.40;;;;;;5038458;28;20025;-71
2021/05/05 01:03:11;;;;;;;9.75;4.47;;;9.10;96.70;;;;;;5038158;28;20029;-71
2021/05/05 01:05:38;;;;;;;5.95;4.18;;;9.10;96.90;;;;;;5038012;28;20080;-71
2021/05/05 01:08:06;;;;;;;10.75;4.97;;;9.20;96.60;;;;;;5038346;28;20365;-72
2021/05/05 01:10:32;;;;;;;10.68;4.88;;;9.20;96.60;;;;;;5038273;28;20026;-73
2021/05/05 01:12:57;;;;;;;10.65;4.93;;;9.20;96.20;;;;;;5038276;28;20053;-73
2021/05/05 01:15:23;;;;;;;9.18;5.05;;;9.20;96.20;;;;;;5037858;28;20382;-71
2021/05/05 01:17:49;;;;;;;8.38;5.40;;;9.20;95.20;;;;;;5037817;28;20155;-71
2021/05/05 01:20:15;;;;;;;6.45;4.90;;;9.30;94.80;;;;;;5037818;28;20029;-71
2021/05/05 01:22:41;;;;;;;8.50;4.68;;;9.30;94.30;;;;;;5037786;28;20056;-71
2021/05/05 01:25:09;;;;;;;11.23;4.93;;;9.30;93.60;;;;;;5037573;28;20026;-71
2021/05/05 01:27:34;;;;;;;7.85;4.55;;;9.20;94.70;;;;;;5037729;28;20037;-71
2021/05/05 01:30:00;;;;;;;7.97;4.72;;;9.20;95.40;;;;;;5037914;28;20017;-71
2021/05/05 01:32:26;;;;;;;8.18;4.93;;;9.10;95.80;;;;;;5037941;28;20083;-71
2021/05/05 01:34:54;;;;;;;7.60;4.00;;;9.10;96.10;;;;;;5037793;28;20315;-71
2021/05/05 01:37:19;;;;;;;6.78;4.45;;;9.10;96.20;;;;;;5037455;28;20052;-72
2021/05/05 01:39:46;;;;;;;7.85;4.75;;;9.10;96.50;;;;;;5037748;28;20052;-73
2021/05/05 01:42:11;;;;;;;6.95;4.28;;;9.20;95.90;;;;;;5037459;28;20026;-73
2021/05/05 01:44:39;;;;;;;6.63;3.72;;;9.30;95.60;;;;;;5037520;28;20080;-73
2021/05/05 01:47:11;;;;;;;5.10;3.00;;;9.30;95.40;;;;;;5037341;28;20025;-71
2021/05/05 01:49:50;;;;;;;8.88;3.80;;;9.30;94.90;;;;;;5037301;28;20029;-71
2021/05/05 01:52:18;;;;;;;9.65;3.55;;;9.20;95.10;;;;;;5037303;28;20025;-71
2021/05/05 01:54:44;;;;;;;6.68;4.18;;;9.10;95.10;;;;;;5037623;28;20354;-71
2021/05/05 01:57:23;;;;;;;7.97;4.25;;;9.10;95.20;;;;;;5037437;28;20049;-71
2021/05/05 01:59:50;;;;;;;6.15;4.18;;;9.10;95.10;;;;;;5037025;28;20033;-71
2021/05/05 02:02:16;;;;;;;6.93;4.88;;;9.00;95.20;;;;;;5037138;28;20052;-71
2021/05/05 02:04:42;;;;;;;5.85;5.28;;;9.00;96.10;;;;;;5037233;28;20024;-71
2021/05/05 02:07:07;;;;;;;10.02;7.32;;;9.00;96.30;;;;;;5037327;28;20025;-71
2021/05/05 02:09:33;;;;;;;9.02;5.97;;;9.00;97.20;;;;;;5036998;28;20406;-71
2021/05/05 02:12:00;;;;;;;11.82;7.30;;;9.10;97.00;;;;;;5037248;28;20041;-71
2021/05/05 02:14:26;;;;;;;8.75;6.25;;;9.20;97.00;;;;;;5037153;28;20309;-71
2021/05/05 02:16:56;;;;;;;10.02;6.75;;;9.30;96.90;;;;;;5036124;28;20049;-71
2021/05/05 02:19:22;;;;;;;10.57;6.60;;;9.50;96.70;;;;;;5036876;28;20410;-71
2021/05/05 02:21:48;;;;;;;14.20;7.30;;;9.60;96.20;;;;;;5037129;28;20022;-71
2021/05/05 02:24:13;;;;;;;12.98;7.53;;;9.60;96.20;;;;;;5037053;28;20314;-71
2021/05/05 02:26:40;;;;;;;12.45;7.35;;;9.70;96.40;;;;;;5037005;28;20025;-71
2021/05/05 02:29:05;;;;;;;15.38;8.18;;;9.70;96.10;;;;;;5036662;28;20421;-71
2021/05/05 02:31:31;;;;;;;12.30;7.07;;;9.80;96.10;;;;;;5037010;28;20032;-71
2021/05/05 02:33:57;;;;;;;12.63;8.13;;;9.90;95.90;;;;;;5036621;28;20361;-71
2021/05/05 02:36:22;;;;;;;13.70;7.35;;;9.90;95.10;;;;;;5036896;28;20030;-71
2021/05/05 02:38:48;;;;;;;17.15;7.93;;;9.90;95.10;;;;;;5036636;28;20033;-71
2021/05/05 02:41:14;;;;;;;10.50;7.40;;;9.80;94.80;;;;;;5036888;28;20030;-71
2021/05/05 02:43:39;;;;;;;10.50;6.70;;;9.80;95.00;;;;;;5036789;28;20052;-71
2021/05/05 02:46:05;;;;;;;10.18;7.47;;;9.80;95.00;;;;;;5036446;28;20434;-71
2021/05/05 02:48:31;;;;;;;18.75;8.00;;;9.80;95.00;;;;;;5036494;28;20029;-71
2021/05/05 02:50:56;;;;;;;12.23;7.15;;;9.80;95.10;;;;;;5036849;28;20055;-71
2021/05/05 02:53:22;;;;;;;9.60;7.00;;;9.80;95.10;;;;;;5036614;28;20029;-71
2021/05/05 02:55:48;;;;;;;10.25;6.82;;;9.80;95.10;;;;;;5036652;28;20117;-71
2021/05/05 02:58:14;;;;;;;13.88;8.35;;;9.90;95.30;;;;;;5035403;28;20399;-71
2021/05/05 03:00:39;;;;;;;11.20;6.70;;;9.90;94.90;;;;;;5036697;28;20091;-71
2021/05/05 03:03:05;;;;;;;9.20;6.25;;;9.90;95.20;;;;;;5036743;28;20037;-71
2021/05/05 03:05:31;;;;;;;8.75;6.10;;;9.90;95.30;;;;;;5036546;28;20022;-71
2021/05/05 03:07:56;;;;;;;16.45;7.13;;;10.00;95.20;;;;;;5036626;28;20033;-71
2021/05/05 03:10:23;;;;;;;11.40;6.63;;;10.00;94.80;;;;;;5036271;28;20028;-71
2021/05/05 03:12:48;;;;;;;10.30;6.53;;;10.00;95.10;;;;;;5036659;28;20032;-72
2021/05/05 03:15:14;;;;;;;10.13;6.88;;;10.00;95.60;;;;;;5036528;28;20100;-70
2021/05/05 03:17:40;;;;;;;12.52;6.15;;;10.00;94.90;;;;;;5036203;28;20053;-70
2021/05/05 03:20:09;;;;;;;8.50;6.03;;;9.90;94.80;;;;;;5036509;28;20029;-70
2021/05/05 03:22:35;;;;;;;12.63;6.55;;;9.90;94.80;;;;;;5036371;28;20100;-72
2021/05/05 03:25:00;;;;;;;8.30;6.32;;;9.90;94.80;;;;;;5036336;28;20422;-70
2021/05/05 03:27:26;;;;;;;9.95;6.18;;;9.90;94.40;;;;;;5036471;28;20053;-70
2021/05/05 03:29:52;;;;;;;9.25;6.65;;;9.90;94.40;;;;;;5039882;28;20536;-70
2021/05/05 03:32:18;;;;;;;14.40;7.28;;;9.90;94.90;;;;;;5040174;28;20060;-70
2021/05/05 03:34:43;;;;;;;11.48;7.40;;;9.90;94.30;;;;;;5039738;28;20104;-70
2021/05/05 03:37:09;;;;;;;12.43;7.50;;;9.90;94.70;;;;;;5039750;28;20057;-70
2021/05/05 03:39:35;;;;;;;15.38;8.10;;;9.90;95.20;;;;;;5040054;28;20026;-70
2021/05/05 03:42:00;;;;;;;14.02;7.30;;;9.90;94.60;;;;;;5039723;28;20321;-70
2021/05/05 03:44:26;;;;;;;10.50;7.55;;;9.90;95.10;;;;;;5039593;28;20026;-71
2021/05/05 03:46:52;;;;;;;15.55;8.02;;;9.90;95.10;;;;;;5039512;28;20124;-72
2021/05/05 03:49:18;;;;;;;14.10;9.48;;;9.80;94.80;;;;;;5039537;28;20026;-70
2021/05/05 03:51:44;;;;;;;13.02;7.20;;;9.80;95.10;;;;;;5039564;28;20109;-72
2021/05/05 03:54:09;;;;;;;11.13;7.47;;;9.80;95.20;;;;;;5039445;28;20025;-73
2021/05/05 03:56:35;;;;;;;14.05;7.63;;;9.70;94.40;;;;;;5039471;28;20324;-73
2021/05/05 03:59:01;;;;;;;14.65;7.72;;;9.70;94.50;;;;;;5039705;28;20032;-72
2021/05/05 04:01:27;;;;;;;10.57;8.20;;;9.50;95.10;;;;;;5039665;28;20419;-70
2021/05/05 04:03:52;;;;;;;13.52;7.93;;;9.40;95.10;;;;;;5039555;28;20033;-70
2021/05/05 04:06:18;;;;;;;10.35;7.82;;;9.40;95.50;;;;;;5039472;28;20036;-70
2021/05/05 04:08:44;;;;;;;11.18;8.10;;;9.40;95.50;;;;;;5039185;28;20136;-72
2021/05/05 04:11:10;;;;;;;9.70;7.45;;;9.30;95.70;;;;;;5039166;28;20109;-72
2021/05/05 04:13:35;;;;;;;11.13;7.93;;;9.30;95.20;;;;;;5039366;28;20052;-73
2021/05/05 04:16:01;;;;;;;12.70;8.00;;;9.20;95.50;;;;;;5039407;28;20033;-73
2021/05/05 04:18:28;;;;;;;11.20;8.13;;;9.20;95.80;;;;;;5038925;28;20053;-73
2021/05/05 04:21:00;;;;;;;13.13;9.23;;;9.30;96.00;;;;;;5039307;28;20037;-70
2021/05/05 04:23:26;;;;;;;13.65;9.00;;;9.30;95.80;;;;;;5039075;28;20064;-72
2021/05/05 04:25:52;;;;;;;15.57;8.75;;;9.30;96.00;;;;;;5039115;28;20116;-71
2021/05/05 04:28:18;;;;;;;10.95;8.15;;;9.30;96.00;;;;;;5039180;28;20044;-73
2021/05/05 04:30:44;;;;;;;12.43;8.77;;;9.30;95.70;;;;;;5038795;28;20029;-73
2021/05/05 04:33:10;;;;;;;10.10;7.90;;;9.30;96.20;;;;;;5038802;28;20104;-71
2021/05/05 04:35:36;;;;;;;13.65;8.60;;;9.30;95.90;;;;;;5038923;28;20104;-71
2021/05/05 04:38:02;;;;;;;11.82;7.72;;;9.30;96.60;;;;;;5038984;28;20075;-73
2021/05/05 04:40:27;;;;;;;11.80;7.95;;;9.30;96.50;;;;;;5038034;28;20298;-72
2021/05/05 04:42:53;;;;;;;12.20;7.15;;;9.40;96.90;;;;;;5038639;28;20064;-71
2021/05/05 04:45:19;;;;;;;9.93;7.25;;;9.40;97.00;;;;;;5038400;28;20029;-71
2021/05/05 04:47:45;;;;;;;10.95;7.55;;;9.60;97.50;;;;;;5038820;28;20017;-72
2021/05/05 04:50:11;;;;;;;11.60;7.65;;;9.70;98.00;;;;;;5038713;28;20402;-72
2021/05/05 04:52:37;;;;;;;9.35;7.35;;;9.90;98.00;;;;;;5038601;28;20075;-72
2021/05/05 04:55:07;;;;;;;9.68;7.05;;;10.10;98.00;;;;;;5038604;28;20418;-72
2021/05/05 04:57:34;;;;;;;8.20;6.85;;;10.30;97.90;;;;;;5038637;28;20021;-72
2021/05/05 04:59:59;;;;;;;15.38;8.05;;;10.40;97.50;;;;;;5038249;28;20033;-72
2021/05/05 05:02:25;;;;;;;14.60;7.43;;;10.60;97.00;;;;;;5038580;28;20025;-73
2021/05/05 05:04:51;;;;;;;11.50;7.15;;;10.80;94.40;;;;;;5038001;28;20418;-72
2021/05/05 05:07:17;;;;;;;10.25;6.70;;;11.00;94.20;;;;;;5038089;28;20037;-72
2021/05/05 05:09:43;;;;;;;13.10;6.65;;;11.10;93.90;;;;;;5038037;28;20087;-72
2021/05/05 05:12:09;;;;;;;14.50;5.55;;;11.30;91.70;;;;;;5038030;28;20410;-72
2021/05/05 05:14:38;;;;;;;14.38;6.47;;;11.40;89.10;;;;;;5037953;28;20032;-73
2021/05/05 05:17:04;;;;;;;8.88;5.55;;;11.50;89.50;;;;;;5037915;28;20049;-72
2021/05/05 05:19:30;;;;;;;10.18;5.70;;;11.60;88.80;;;;;;5037864;28;20033;-72
2021/05/05 05:21:56;;;;;;;13.88;5.80;;;11.70;88.60;;;;;;5037829;28;20037;-72
2021/05/05 05:24:21;;;;;;;6.85;4.75;;;11.80;89.50;;;;;;5038143;28;20147;-71
2021/05/05 05:26:47;;;;;;;8.10;4.43;;;11.80;90.00;;;;;;5037894;28;20041;-71
2021/05/05 05:29:13;;;;;;;9.68;4.95;;;11.80;89.40;;;;;;5037988;28;20029;-70
2021/05/05 05:31:39;;;;;;;8.38;4.45;;;11.80;91.00;;;;;;5037944;28;20025;-71
2021/05/05 05:34:04;;;;;;;9.88;3.92;;;11.80;89.10;;;;;;5037833;28;20029;-71
2021/05/05 05:36:30;;;;;;;10.25;4.15;;;11.70;88.70;;;;;;5037549;28;20040;-71
2021/05/05 05:38:56;;;;;;;10.27;4.57;;;11.70;89.90;;;;;;5037495;28;20033;-72
2021/05/05 05:41:22;;;;;;;12.98;3.78;;;11.70;89.20;;;;;;5037459;28;20029;-72
2021/05/05 05:43:47;;;;;;;10.05;4.55;;;11.70;89.80;;;;;;5037668;28;20117;-72
2021/05/05 05:46:13;;;;;;;9.43;4.80;;;11.70;89.80;;;;;;5037275;28;20036;-72
2021/05/05 05:48:39;;;;;;;7.65;4.65;;;11.80;89.10;;;;;;5037695;28;20026;-72
2021/05/05 05:51:05;;;;;;;14.68;4.78;;;11.80;90.00;;;;;;5037168;28;20025;-72
2021/05/05 05:53:31;;;;;;;12.43;4.97;;;11.80;89.20;;;;;;5037388;28;20305;-72
2021/05/05 05:55:56;;;;;;;8.43;4.22;;;11.90;90.50;;;;;;5037509;28;20071;-70
2021/05/05 05:58:22;;;;;;;11.25;4.15;;;11.90;90.70;;;;;;5037474;28;20036;-70
2021/05/05 06:00:48;;;;;;;7.45;4.22;;;11.80;89.60;;;;;;5037488;28;20460;-71
2021/05/05 06:03:13;;;;;;;16.60;4.22;;;11.80;89.30;;;;;;5037074;28;20330;-72
2021/05/05 06:05:39;;;;;;;14.07;3.97;;;11.80;89.80;;;;;;5037206;28;20029;-72
2021/05/05 06:08:05;;;;;;;11.38;4.00;;;11.80;89.70;;;;;;5037031;28;20029;-72
2021/05/05 06:10:31;;;;;;;10.18;4.60;;;11.80;89.70;;;;;;5037211;28;20032;-71
2021/05/05 06:12:57;;;;;;;12.50;5.68;;;11.80;90.10;;;;;;5037310;28;20321;-72
2021/05/05 06:15:23;;;;;;;9.77;5.25;;;11.80;89.60;;;;;;5036791;28;20421;-71
2021/05/05 06:17:49;;;;;;;11.05;5.07;;;11.90;90.20;;;;;;5036838;28;20392;-71
2021/05/05 06:20:16;;;;;;;8.63;4.43;;;11.90;90.30;;;;;;5036810;28;20025;-71
2021/05/05 06:22:41;;;;;;;14.75;4.75;;;11.90;90.40;;;;;;5037114;28;20052;-72
2021/05/05 06:25:08;;;;;;;5.57;3.97;;;12.00;90.10;;;;;;5036608;28;20421;-70
2021/05/05 06:27:37;;;;;;;8.32;3.90;;;12.10;89.50;;;;;;5036781;28;20021;-71
2021/05/05 06:30:05;;;;;;;10.18;4.15;;;12.10;90.10;;;;;;5036957;28;20398;-71
2021/05/05 06:32:31;;;;;;;12.68;3.70;;;12.10;89.10;;;;;;5036553;28;20026;-71
2021/05/05 06:34:57;;;;;;;9.00;4.28;;;12.00;88.90;;;;;;5036878;28;20032;-72
2021/05/05 06:37:23;;;;;;;7.38;3.75;;;12.00;89.40;;;;;;5036894;28;20037;-72
2021/05/05 06:39:49;;;;;;;6.38;3.42;;;12.00;89.20;;;;;;5036913;28;20333;-72
2021/05/05 06:42:15;;;;;;;6.80;4.22;;;12.10;90.20;;;;;;5036731;28;20469;-72
2021/05/05 06:44:42;;;;;;;9.73;4.10;;;12.30;88.70;;;;;;5036779;28;20149;-71
2021/05/05 06:47:07;;;;;;;8.98;3.65;;;12.30;88.50;;;;;;5036787;28;20026;-71
2021/05/05 06:49:34;;;;;;;5.88;3.53;;;12.40;89.30;;;;;;5036512;28;20028;-72
2021/05/05 06:52:00;;;;;;;10.27;3.58;;;12.40;88.90;;;;;;5036792;28;20032;-71
2021/05/05 06:54:26;;;;;;;12.25;3.58;;;12.40;88.30;;;;;;5036807;28;20297;-71
2021/05/05 06:56:52;;;;;;;7.95;3.60;;;12.40;88.30;;;;;;5036448;28;20033;-71
2021/05/05 06:59:18;;;;;;;7.38;3.05;;;12.40;89.50;;;;;;5036749;28;20155;-72
2021/05/05 07:01:44;;;;;;;8.50;3.80;;;12.50;89.10;;;;;;5036719;28;20088;-72
2021/05/05 07:04:10;;;;;;;7.18;3.47;;;12.60;88.60;;;;;;5039150;28;20396;-72
2021/05/05 07:06:37;;;;;;;9.32;3.45;;;12.60;90.10;;;;;;5040325;28;20068;-71
2021/05/05 07:09:06;;;;;;;9.93;3.80;;;12.50;87.40;;;;;;5040338;28;20029;-71
2021/05/05 07:11:35;;;;;;;7.72;3.40;;;12.50;88.00;;;;;;5040616;28;20321;-72
2021/05/05 07:14:02;;;;;;;8.20;3.47;;;12.50;88.40;;;;;;5040488;28;20021;-70
2021/05/05 07:16:27;;;;;;;8.82;3.30;;;12.50;90.50;;;;;;5039911;28;20040;-70
2021/05/05 07:18:53;;;;;;;7.50;4.15;;;12.50;88.10;;;;;;5040169;28;20033;-70
2021/05/05 07:21:19;;;;;;;10.90;4.05;;;12.50;89.70;;;;;;5040446;28;20029;-70
2021/05/05 07:23:44;;;;;;;9.63;3.88;;;12.60;91.20;;;;;;5039887;28;20104;-70
2021/05/05 07:26:11;;;;;;;7.85;3.63;;;12.80;89.20;;;;;;5040229;28;20033;-72
2021/05/05 07:28:38;;;;;;;8.88;3.42;;;12.90;90.20;;;;;;5039974;28;20026;-70
2021/05/05 07:31:05;;;;;;;6.53;3.47;;;13.00;87.10;;;;;;5039969;28;20079;-72
2021/05/05 07:33:31;;;;;;;8.80;3.30;;;13.10;87.80;;;;;;5040111;28;20038;-70
2021/05/05 07:35:58;;;;;;;9.63;3.42;;;13.10;85.70;;;;;;5040141;28;20037;-72
2021/05/05 07:44:35;;;;;;;10.02;3.78;;;13.20;88.00;;;;;;5040166;28;20464;-70
2021/05/05 07:49:21;;;;;;;12.35;3.92;;;13.40;87.60;;;;;;5040224;28;20064;-70
2021/05/05 07:51:47;;;;;;;10.13;3.95;;;13.80;85.30;;;;;;5039899;28;20104;-70
2021/05/05 07:54:13;;;;;;;8.13;3.42;;;14.10;85.30;;;;;;5039873;28;20148;-71
2021/05/05 07:56:40;;;;;;;7.72;3.30;;;14.10;82.10;;;;;;5039449;28;20072;-71
2021/05/05 07:59:06;;;;;;;9.35;3.72;;;14.30;84.40;;;;;;5039414;28;20483;-72
2021/05/05 08:01:33;;;;;;;9.20;3.88;;;14.50;82.20;;;;;;5039381;28;20025;-71
2021/05/05 08:03:59;;;;;;;10.98;3.60;;;14.70;82.10;;;;;;5039198;28;20032;-71
2021/05/05 08:06:27;;;;;;;10.35;4.60;;;14.80;84.00;;;;;;5039445;28;20030;-71
2021/05/05 08:08:53;;;;;;;8.73;4.15;;;14.70;81.90;;;;;;5039344;28;20025;-70
2021/05/05 08:11:20;;;;;;;11.82;4.85;;;14.60;81.10;;;;;;5039540;28;20033;-71
2021/05/05 08:13:47;;;;;;;8.27;4.20;;;14.60;81.50;;;;;;5039372;28;20021;-71
2021/05/05 08:16:14;;;;;;;8.73;4.60;;;14.60;82.40;;;;;;5038474;28;20041;-72
2021/05/05 08:18:40;;;;;;;9.20;4.40;;;14.50;81.30;;;;;;5038943;28;20049;-71
2021/05/05 08:21:07;;;;;;;9.30;4.63;;;14.40;84.00;;;;;;5039060;28;20037;-71
2021/05/05 08:23:35;;;;;;;9.43;3.85;;;14.50;80.70;;;;;;5039243;28;20037;-71
2021/05/05 08:26:01;;;;;;;12.70;5.50;;;14.50;83.20;;;;;;5039129;28;20029;-71
2021/05/05 08:28:26;;;;;;;10.40;4.30;;;14.60;83.40;;;;;;5038810;28;20030;-71
2021/05/05 08:30:52;;;;;;;8.98;4.10;;;14.60;80.70;;;;;;5038878;28;20025;-71
2021/05/05 08:33:21;;;;;;;9.15;4.03;;;14.60;84.60;;;;;;5038776;28;20075;-71
2021/05/05 08:35:47;;;;;;;11.63;4.50;;;14.80;83.00;;;;;;5038629;28;20048;-71
2021/05/05 08:38:14;;;;;;;9.38;4.80;;;15.00;79.50;;;;;;5038704;28;20025;-71
2021/05/05 08:40:39;;;;;;;6.00;3.45;;;14.90;81.60;;;;;;5038914;28;20364;-71
2021/05/05 08:43:05;;;;;;;7.18;3.92;;;14.70;81.00;;;;;;5038949;28;20104;-71
2021/05/05 08:45:32;;;;;;;10.52;4.32;;;14.50;82.10;;;;;;5038757;28;20323;-71
2021/05/05 08:48:05;;;;;;;7.68;3.75;;;14.30;82.70;;;;;;5038620;28;20425;-71
2021/05/05 08:50:33;;;;;;;10.55;4.60;;;14.20;84.60;;;;;;5038764;28;20056;-71
2021/05/05 08:52:59;;;;;;;11.90;5.13;;;14.50;83.20;;;;;;5038503;28;20022;-71
2021/05/05 08:55:26;;;;;;;8.88;5.43;;;14.70;82.10;;;;;;5038289;28;20034;-71
2021/05/05 08:57:52;;;;;;;9.05;5.15;;;14.90;83.30;;;;;;5038643;28;20028;-71
2021/05/05 09:00:23;;;;;;;7.93;5.07;;;15.30;84.30;;;;;;5038564;28;20354;-71
2021/05/05 09:02:49;;;;;;;9.82;5.35;;;15.30;82.60;;;;;;5038257;28;20083;-71
2021/05/05 09:05:16;;;;;;;11.52;6.53;;;15.20;81.70;;;;;;5037995;28;20029;-71
2021/05/05 09:07:43;;;;;;;12.40;6.22;;;15.10;81.50;;;;;;5038137;28;20032;-71
2021/05/05 09:10:09;;;;;;;18.00;6.32;;;14.70;83.60;;;;;;5038372;28;20024;-71
2021/05/05 09:12:38;;;;;;;13.13;6.20;;;14.50;84.10;;;;;;5038386;28;20080;-71
2021/05/05 09:15:08;;;;;;;7.65;5.80;;;14.20;86.30;;;;;;5038185;28;20382;-71
2021/05/05 09:17:37;;;;;;;16.70;6.13;;;13.90;86.20;;;;;;5037918;28;20046;-71
2021/05/05 09:20:05;;;;;;;10.30;6.63;;;13.70;87.60;;;;;;5037817;28;20105;-71
2021/05/05 09:22:40;;;;;;;10.90;6.50;;;13.50;87.20;;;;;;5037784;28;20393;-71
2021/05/05 09:25:09;;;;;;;11.15;6.30;;;13.40;88.30;;;;;;5038018;28;20060;-71
2021/05/05 09:27:35;;;;;;;8.88;6.47;;;13.20;89.30;;;;;;5037657;28;20033;-71
2021/05/05 09:30:05;;;;;;;11.27;6.68;;;13.20;87.30;;;;;;5037664;28;20067;-71
2021/05/05 09:32:48;;;;;;;10.63;6.93;;;13.00;89.70;;;;;;5038027;28;20028;-71
2021/05/05 09:35:15;;;;;;;10.70;6.82;;;13.00;89.60;;;;;;5037923;28;20087;-71
2021/05/05 09:37:41;;;;;;;10.98;7.07;;;12.90;90.40;;;;;;5037857;28;20422;-71
2021/05/05 09:40:11;;;;;;;13.38;6.60;;;13.00;90.50;;;;;;5037851;28;20104;-71
2021/05/05 09:42:39;;;;;;;14.02;6.32;;;13.10;90.80;;;;;;5037524;28;20116;-71
2021/05/05 09:45:08;;;;;;;11.82;7.03;;;13.20;90.80;;;;;;5037619;28;20026;-71
2021/05/05 09:47:49;;;;;;;10.27;6.65;;;13.30;89.40;;;;;;5037382;28;20017;-71
2021/05/05 09:50:38;;;;;;;8.57;6.80;;;13.20;88.10;;;;;;5037253;28;20361;-71
2021/05/05 09:53:24;;;;;;;12.18;6.78;;;13.20;90.00;;;;;;5037409;28;20410;-71
2021/05/05 09:55:59;;;;;;;11.80;7.13;;;13.20;90.30;;;;;;5037537;28;20018;-71
2021/05/05 09:58:40;;;;;;;9.70;7.00;;;13.20;90.50;;;;;;5037165;28;20046;-72
2021/05/05 10:01:06;;;;;;;13.00;6.72;;;13.40;91.20;;;;;;5037514;28;20033;-70
2021/05/05 10:03:39;;;;;;;17.17;7.20;;;13.40;89.70;;;;;;5037031;28;20072;-71
2021/05/05 10:06:24;;;;;;;13.95;7.18;;;13.40;88.90;;;;;;5037343;28;20033;-71
2021/05/05 10:08:53;;;;;;;12.50;6.60;;;13.30;89.00;;;;;;5037038;28;20440;-71
2021/05/05 10:11:22;;;;;;;10.25;6.68;;;13.30;89.10;;;;;;5037300;28;20071;-70
2021/05/05 10:13:52;;;;;;;11.48;6.68;;;13.20;89.00;;;;;;5036691;28;20104;-72
2021/05/05 10:16:20;;;;;;;12.50;6.95;;;13.20;91.60;;;;;;5041166;28;20382;-72
2021/05/05 10:18:47;;;;;;;11.90;6.25;;;13.30;89.90;;;;;;5052726;28;20337;-71
2021/05/05 10:21:14;;;;;;;9.70;6.38;;;13.40;90.60;;;;;;5055817;28;20025;-71
2021/05/05 10:23:42;;;;;;;13.15;6.82;;;13.40;89.70;;;;;;5056869;28;20043;-72
2021/05/05 10:26:09;;;;;;;9.43;6.50;;;13.50;89.90;;;;;;5056603;28;20048;-72
2021/05/05 10:28:35;;;;;;;11.27;6.50;;;13.70;90.00;;;;;;5056977;28;20021;-72
2021/05/05 10:31:01;;;;;;;10.98;7.25;;;14.00;88.60;;;;;;5056970;28;20036;-73
2021/05/05 10:33:31;;;;;;;8.75;6.53;;;14.20;87.80;;;;;;5056851;28;20071;-72
2021/05/05 10:36:35;;;;;;;11.55;7.05;;;15.10;85.30;;;;;;5056618;28;20530;-73
2021/05/05 10:39:25;;;;;;;10.75;5.93;;;15.50;84.60;;;;;;5056068;28;20448;-72
2021/05/05 10:42:15;;;;;;;13.68;6.55;;;15.50;81.10;;;;;;5055898;28;20337;-72
2021/05/05 10:44:45;;;;;;;9.52;5.80;;;15.40;82.00;;;;;;5056722;28;20100;-72
2021/05/05 10:47:31;;;;;;;11.68;6.78;;;15.50;85.50;;;;;;5056839;28;20087;-73
2021/05/05 10:50:06;;;;;;;12.40;7.30;;;15.30;79.80;;;;;;5056831;28;20104;-72
2021/05/05 10:52:34;;;;;;;10.52;6.93;;;15.00;82.90;;;;;;5056635;28;20033;-72
2021/05/05 10:55:03;;;;;;;14.05;7.63;;;14.70;84.40;;;;;;5056375;28;20025;-72
2021/05/05 10:57:29;;;;;;;15.98;7.60;;;14.40;80.60;;;;;;5056359;28;20025;-72
2021/05/05 10:59:58;;;;;;;17.10;8.45;;;14.20;84.30;;;;;;5056342;28;20025;-72
2021/05/05 11:02:47;;;;;;;14.30;8.43;;;13.90;83.50;;;;;;5056623;28;20029;-72
2021/05/05 11:05:20;;;;;;;10.40;7.40;;;13.60;84.20;;;;;;5056204;28;20079;-72
2021/05/05 11:08:29;;;;;;;13.55;7.07;;;13.40;86.80;;;;;;5056614;28;20116;-72
2021/05/05 11:10:57;;;;;;;10.10;6.47;;;13.40;88.20;;;;;;5055960;28;20031;-72
2021/05/05 11:13:23;;;;;;;14.40;7.25;;;13.40;88.90;;;;;;5056253;28;20456;-72
2021/05/05 11:15:53;;;;;;;12.25;8.23;;;13.30;85.60;;;;;;5056456;28;20029;-72
2021/05/05 11:18:33;;;;;;;16.45;8.73;;;13.30;84.00;;;;;;5054979;28;20053;-71
2021/05/05 11:20:59;;;;;;;15.27;7.90;;;13.30;84.30;;;;;;5056164;28;20029;-71
2021/05/05 11:23:38;;;;;;;12.68;8.88;;;13.40;85.00;;;;;;5056403;28;20087;-72
2021/05/05 11:26:13;;;;;;;15.23;7.90;;;13.50;84.50;;;;;;5056088;28;20033;-72
2021/05/05 11:29:10;;;;;;;9.85;7.35;;;13.60;85.40;;;;;;5056378;28;20059;-72
2021/05/05 11:31:48;;;;;;;11.50;6.35;;;13.70;85.90;;;;;;5056439;28;20021;-72
2021/05/05 11:34:20;;;;;;;12.80;7.60;;;13.80;88.40;;;;;;5056317;28;20290;-72
2021/05/05 11:37:00;;;;;;;13.80;6.70;;;13.90;89.30;;;;;;5056315;28;20317;-72
2021/05/05 11:39:36;;;;;;;15.45;7.32;;;14.00;87.70;;;;;;5055963;28;20048;-72
2021/05/05 11:42:14;;;;;;;12.07;6.97;;;14.00;86.20;;;;;;5056336;28;20320;-72
2021/05/05 11:44:42;;;;;;;14.20;7.07;;;14.10;85.30;;;;;;5055906;28;20029;-72
2021/05/05 11:47:20;;;;;;;13.02;7.18;;;14.10;86.10;;;;;;5055812;28;20063;-72
2021/05/05 11:49:49;;;;;;;11.80;7.10;;;14.10;87.50;;;;;;5056406;28;20029;-72
2021/05/05 11:52:23;;;;;;;14.63;7.60;;;14.10;85.50;;;;;;5059876;28;20021;-72
2021/05/05 11:55:09;;;;;;;12.90;7.85;;;14.20;85.70;;;;;;5059903;28;20064;-72
2021/05/05 11:57:38;;;;;;;12.45;8.45;;;14.60;87.60;;;;;;5059422;28;20029;-72
2021/05/05 12:00:12;;;;;;;11.52;7.78;;;15.40;80.60;;;;;;5059668;28;20083;-71
2021/05/05 12:02:53;;;;;;;12.52;7.32;;;16.00;78.40;;;;;;5059321;28;20025;-73
2021/05/05 12:05:25;;;;;;;12.68;7.53;;;16.10;80.50;;;;;;5059422;28;20041;-71
2021/05/05 12:08:02;;;;;;;14.27;7.18;;;16.10;79.90;;;;;;5059186;28;20029;-71
2021/05/05 12:10:51;;;;;;;8.60;6.55;;;16.10;79.60;;;;;;5058980;28;20056;-71
2021/05/05 12:13:27;;;;;;;8.93;6.32;;;16.00;77.00;;;;;;5059490;28;20029;-73
2021/05/05 12:16:01;;;;;;;16.15;7.75;;;15.80;82.20;;;;;;5059063;28;20029;-71
2021/05/05 12:18:47;;;;;;;17.25;7.70;;;15.60;80.40;;;;;;5058943;28;20055;-73
2021/05/05 12:21:17;;;;;;;13.93;7.90;;;15.40;79.80;;;;;;5058995;28;20029;-73
2021/05/05 12:23:48;;;;;;;11.23;7.75;;;15.20;82.40;;;;;;5059264;28;20036;-72
2021/05/05 12:26:16;;;;;;;14.20;8.32;;;15.10;81.80;;;;;;5058739;28;20060;-73
2021/05/05 12:28:44;;;;;;;10.80;7.38;;;15.00;82.40;;;;;;5058834;28;20060;-72
2021/05/05 12:31:14;;;;;;;11.68;7.70;;;14.80;84.40;;;;;;5059145;28;20104;-73
2021/05/05 12:33:42;;;;;;;14.55;7.75;;;14.70;84.40;;;;;;5058700;28;20049;-73
2021/05/05 12:36:16;;;;;;;11.50;7.22;;;14.60;86.00;;;;;;5058651;28;20154;-73
2021/05/05 12:38:45;;;;;;;11.55;7.60;;;14.50;84.90;;;;;;5058979;28;20051;-73
2021/05/05 12:41:13;;;;;;;12.82;8.50;;;14.40;84.40;;;;;;5058952;28;20036;-73
2021/05/05 12:43:40;;;;;;;16.08;8.73;;;14.40;83.60;;;;;;5058736;28;20032;-72
2021/05/05 12:46:29;;;;;;;11.93;7.63;;;14.20;87.40;;;;;;5058742;28;20021;-73
2021/05/05 12:48:56;;;;;;;10.55;7.53;;;14.10;86.90;;;;;;5058835;28;20061;-73
2021/05/05 12:51:24;;;;;;;11.70;7.10;;;14.10;88.30;;;;;;5058772;28;20403;-71
2021/05/05 12:54:02;;;;;;;11.88;8.73;;;14.30;88.30;;;;;;5058369;28;20105;-72
2021/05/05 12:56:50;;;;;;;14.65;8.95;;;14.50;85.40;;;;;;5058353;28;20040;-73
2021/05/05 12:59:30;;;;;;;12.63;8.77;;;14.70;83.70;;;;;;5058244;28;20494;-73
2021/05/05 13:02:04;;;;;;;14.63;8.05;;;14.70;82.60;;;;;;5058137;28;20326;-72